sensor_id;sensor_type;location;lat;lon;timestamp;P1;durP1;ratioP1;P2;durP2;ratioP2
13560;SDS011;6852;51.686;5.314;2023-05-21T00:01:53;4.17;;;3.20;;
13560;SDS011;6852;51.686;5.314;2023-05-21T00:04:21;4.07;;;2.90;;
13560;SDS011;6852;51.686;5.314;2023-05-21T00:06:47;5.17;;;3.40;;
13560;SDS011;6852;51.686;5.314;2023-05-21T00:09:15;3.37;;;2.87;;
13560;SDS011;6852;51.686;5.314;2023-05-21T00:11:42;3.20;;;2.90;;
13560;SDS011;6852;51.686;5.314;2023-05-21T00:14:09;5.10;;;2.63;;
13560;SDS011;6852;51.686;5.314;2023-05-21T00:16:36;7.40;;;4.00;;
13560;SDS011;6852;51.686;5.314;2023-05-21T00:19:03;3.63;;;3.30;;
13560;SDS011;6852;51.686;5.314;2023-05-21T00:21:31;5.10;;;4.00;;
13560;SDS011;6852;51.686;5.314;2023-05-21T00:23:58;3.50;;;3.20;;
13560;SDS011;6852;51.686;5.314;2023-05-21T00:26:25;5.23;;;3.40;;
13560;SDS011;6852;51.686;5.314;2023-05-21T00:28:52;6.33;;;4.50;;
13560;SDS011;6852;51.686;5.314;2023-05-21T00:31:19;3.33;;;3.03;;
13560;SDS011;6852;51.686;5.314;2023-05-21T00:33:47;3.87;;;2.93;;
13560;SDS011;6852;51.686;5.314;2023-05-21T00:36:14;3.70;;;3.27;;
13560;SDS011;6852;51.686;5.314;2023-05-21T00:38:41;3.30;;;2.73;;
13560;SDS011;6852;51.686;5.314;2023-05-21T00:41:09;3.87;;;3.00;;
13560;SDS011;6852;51.686;5.314;2023-05-21T00:43:36;3.60;;;3.10;;
13560;SDS011;6852;51.686;5.314;2023-05-21T00:46:07;4.40;;;2.83;;
13560;SDS011;6852;51.686;5.314;2023-05-21T00:48:38;3.33;;;2.87;;
13560;SDS011;6852;51.686;5.314;2023-05-21T00:51:05;4.70;;;3.30;;
13560;SDS011;6852;51.686;5.314;2023-05-21T00:53:32;7.57;;;2.77;;
13560;SDS011;6852;51.686;5.314;2023-05-21T00:56:01;6.50;;;4.03;;
13560;SDS011;6852;51.686;5.314;2023-05-21T00:58:28;4.17;;;3.33;;
13560;SDS011;6852;51.686;5.314;2023-05-21T01:00:58;5.60;;;3.20;;
13560;SDS011;6852;51.686;5.314;2023-05-21T01:03:33;4.90;;;3.30;;
13560;SDS011;6852;51.686;5.314;2023-05-21T01:06:04;3.73;;;3.37;;
13560;SDS011;6852;51.686;5.314;2023-05-21T01:08:33;3.90;;;3.33;;
13560;SDS011;6852;51.686;5.314;2023-05-21T01:11:03;4.90;;;3.27;;
13560;SDS011;6852;51.686;5.314;2023-05-21T01:13:32;2.90;;;2.60;;
13560;SDS011;6852;51.686;5.314;2023-05-21T01:16:03;3.27;;;2.83;;
13560;SDS011;6852;51.686;5.314;2023-05-21T01:18:32;3.93;;;3.53;;
13560;SDS011;6852;51.686;5.314;2023-05-21T01:21:03;4.27;;;3.13;;
13560;SDS011;6852;51.686;5.314;2023-05-21T01:23:32;3.43;;;3.13;;
13560;SDS011;6852;51.686;5.314;2023-05-21T01:25:59;3.03;;;2.73;;
13560;SDS011;6852;51.686;5.314;2023-05-21T01:28:26;3.57;;;2.97;;
13560;SDS011;6852;51.686;5.314;2023-05-21T01:30:55;2.97;;;2.67;;
13560;SDS011;6852;51.686;5.314;2023-05-21T01:33:27;4.07;;;3.33;;
13560;SDS011;6852;51.686;5.314;2023-05-21T01:38:41;3.50;;;3.20;;
13560;SDS011;6852;51.686;5.314;2023-05-21T01:41:13;3.67;;;3.23;;
13560;SDS011;6852;51.686;5.314;2023-05-21T01:43:43;4.00;;;3.00;;
13560;SDS011;6852;51.686;5.314;2023-05-21T01:46:12;3.30;;;3.00;;
13560;SDS011;6852;51.686;5.314;2023-05-21T01:48:43;5.83;;;3.27;;
13560;SDS011;6852;51.686;5.314;2023-05-21T01:51:10;4.03;;;3.27;;
13560;SDS011;6852;51.686;5.314;2023-05-21T01:53:38;3.57;;;3.13;;
13560;SDS011;6852;51.686;5.314;2023-05-21T01:56:06;4.20;;;3.10;;
13560;SDS011;6852;51.686;5.314;2023-05-21T01:58:33;3.33;;;2.93;;
13560;SDS011;6852;51.686;5.314;2023-05-21T02:00:59;3.40;;;3.10;;
13560;SDS011;6852;51.686;5.314;2023-05-21T02:03:28;4.43;;;3.50;;
13560;SDS011;6852;51.686;5.314;2023-05-21T02:05:56;4.60;;;3.37;;
13560;SDS011;6852;51.686;5.314;2023-05-21T02:08:23;4.50;;;3.73;;
13560;SDS011;6852;51.686;5.314;2023-05-21T02:10:50;3.47;;;3.17;;
13560;SDS011;6852;51.686;5.314;2023-05-21T02:13:17;6.10;;;3.80;;
13560;SDS011;6852;51.686;5.314;2023-05-21T02:15:48;3.80;;;3.07;;
13560;SDS011;6852;51.686;5.314;2023-05-21T02:18:15;4.43;;;3.53;;
13560;SDS011;6852;51.686;5.314;2023-05-21T02:20:42;3.77;;;3.40;;
13560;SDS011;6852;51.686;5.314;2023-05-21T02:23:09;4.03;;;3.53;;
13560;SDS011;6852;51.686;5.314;2023-05-21T02:25:36;5.03;;;3.53;;
13560;SDS011;6852;51.686;5.314;2023-05-21T02:28:03;3.50;;;3.20;;
13560;SDS011;6852;51.686;5.314;2023-05-21T02:30:32;3.73;;;3.43;;
13560;SDS011;6852;51.686;5.314;2023-05-21T02:32:58;4.83;;;3.80;;
13560;SDS011;6852;51.686;5.314;2023-05-21T02:35:26;3.77;;;3.30;;
13560;SDS011;6852;51.686;5.314;2023-05-21T02:37:53;6.10;;;3.77;;
13560;SDS011;6852;51.686;5.314;2023-05-21T02:40:24;4.23;;;3.83;;
13560;SDS011;6852;51.686;5.314;2023-05-21T02:42:51;4.77;;;3.70;;
13560;SDS011;6852;51.686;5.314;2023-05-21T02:45:18;4.40;;;3.60;;
13560;SDS011;6852;51.686;5.314;2023-05-21T02:47:45;3.60;;;3.30;;
13560;SDS011;6852;51.686;5.314;2023-05-21T02:50:12;4.20;;;3.80;;
13560;SDS011;6852;51.686;5.314;2023-05-21T02:52:40;4.53;;;3.53;;
13560;SDS011;6852;51.686;5.314;2023-05-21T02:55:07;5.23;;;3.53;;
13560;SDS011;6852;51.686;5.314;2023-05-21T02:57:34;5.77;;;4.13;;
13560;SDS011;6852;51.686;5.314;2023-05-21T03:00:01;4.60;;;3.73;;
13560;SDS011;6852;51.686;5.314;2023-05-21T03:02:31;5.33;;;3.73;;
13560;SDS011;6852;51.686;5.314;2023-05-21T03:04:58;4.30;;;3.60;;
13560;SDS011;6852;51.686;5.314;2023-05-21T03:07:25;5.13;;;3.70;;
13560;SDS011;6852;51.686;5.314;2023-05-21T03:09:52;5.17;;;3.30;;
13560;SDS011;6852;51.686;5.314;2023-05-21T03:12:19;4.00;;;3.30;;
13560;SDS011;6852;51.686;5.314;2023-05-21T03:14:47;3.93;;;3.53;;
13560;SDS011;6852;51.686;5.314;2023-05-21T03:17:16;6.13;;;3.60;;
13560;SDS011;6852;51.686;5.314;2023-05-21T03:19:44;5.67;;;3.37;;
13560;SDS011;6852;51.686;5.314;2023-05-21T03:22:10;5.50;;;4.10;;
13560;SDS011;6852;51.686;5.314;2023-05-21T03:24:37;5.97;;;3.70;;
13560;SDS011;6852;51.686;5.314;2023-05-21T03:27:05;7.00;;;3.70;;
13560;SDS011;6852;51.686;5.314;2023-05-21T03:29:32;4.47;;;3.30;;
13560;SDS011;6852;51.686;5.314;2023-05-21T03:32:00;5.73;;;4.10;;
13560;SDS011;6852;51.686;5.314;2023-05-21T03:34:27;4.17;;;3.40;;
13560;SDS011;6852;51.686;5.314;2023-05-21T03:36:54;8.13;;;4.80;;
13560;SDS011;6852;51.686;5.314;2023-05-21T03:39:21;4.07;;;3.57;;
13560;SDS011;6852;51.686;5.314;2023-05-21T03:41:48;4.63;;;3.77;;
13560;SDS011;6852;51.686;5.314;2023-05-21T03:44:15;4.10;;;3.80;;
13560;SDS011;6852;51.686;5.314;2023-05-21T03:46:42;4.60;;;3.80;;
13560;SDS011;6852;51.686;5.314;2023-05-21T03:49:10;5.07;;;4.03;;
13560;SDS011;6852;51.686;5.314;2023-05-21T03:51:37;5.00;;;4.40;;
13560;SDS011;6852;51.686;5.314;2023-05-21T03:54:04;4.53;;;3.77;;
13560;SDS011;6852;51.686;5.314;2023-05-21T03:56:31;6.70;;;4.80;;
13560;SDS011;6852;51.686;5.314;2023-05-21T03:58:58;5.33;;;4.73;;
13560;SDS011;6852;51.686;5.314;2023-05-21T04:01:25;5.83;;;4.00;;
13560;SDS011;6852;51.686;5.314;2023-05-21T04:03:53;4.33;;;3.80;;
13560;SDS011;6852;51.686;5.314;2023-05-21T04:06:20;6.27;;;4.30;;
13560;SDS011;6852;51.686;5.314;2023-05-21T04:08:48;5.03;;;3.87;;
13560;SDS011;6852;51.686;5.314;2023-05-21T04:11:15;5.33;;;4.67;;
13560;SDS011;6852;51.686;5.314;2023-05-21T04:13:42;5.30;;;4.23;;
13560;SDS011;6852;51.686;5.314;2023-05-21T04:16:08;4.87;;;4.03;;
13560;SDS011;6852;51.686;5.314;2023-05-21T04:18:36;5.77;;;4.33;;
13560;SDS011;6852;51.686;5.314;2023-05-21T04:21:03;6.03;;;4.63;;
13560;SDS011;6852;51.686;5.314;2023-05-21T04:23:30;5.00;;;4.37;;
13560;SDS011;6852;51.686;5.314;2023-05-21T04:25:57;6.10;;;4.53;;
13560;SDS011;6852;51.686;5.314;2023-05-21T04:28:24;4.80;;;4.30;;
13560;SDS011;6852;51.686;5.314;2023-05-21T04:30:54;5.50;;;4.60;;
13560;SDS011;6852;51.686;5.314;2023-05-21T04:33:21;4.77;;;4.13;;
13560;SDS011;6852;51.686;5.314;2023-05-21T04:35:50;4.67;;;3.80;;
13560;SDS011;6852;51.686;5.314;2023-05-21T04:38:17;7.10;;;4.40;;
13560;SDS011;6852;51.686;5.314;2023-05-21T04:40:48;5.30;;;4.50;;
13560;SDS011;6852;51.686;5.314;2023-05-21T04:43:20;5.07;;;4.30;;
13560;SDS011;6852;51.686;5.314;2023-05-21T04:45:51;5.97;;;4.50;;
13560;SDS011;6852;51.686;5.314;2023-05-21T04:48:20;7.30;;;4.30;;
13560;SDS011;6852;51.686;5.314;2023-05-21T04:50:52;5.13;;;4.40;;
13560;SDS011;6852;51.686;5.314;2023-05-21T04:53:19;5.53;;;4.70;;
13560;SDS011;6852;51.686;5.314;2023-05-21T04:55:47;4.40;;;4.00;;
13560;SDS011;6852;51.686;5.314;2023-05-21T04:58:14;9.00;;;4.93;;
13560;SDS011;6852;51.686;5.314;2023-05-21T05:00:43;5.33;;;4.80;;
13560;SDS011;6852;51.686;5.314;2023-05-21T05:03:16;5.50;;;4.40;;
13560;SDS011;6852;51.686;5.314;2023-05-21T05:05:44;6.67;;;4.73;;
13560;SDS011;6852;51.686;5.314;2023-05-21T05:08:11;6.40;;;4.47;;
13560;SDS011;6852;51.686;5.314;2023-05-21T05:10:41;4.97;;;4.10;;
13560;SDS011;6852;51.686;5.314;2023-05-21T05:13:08;5.90;;;4.70;;
13560;SDS011;6852;51.686;5.314;2023-05-21T05:15:35;6.03;;;4.60;;
13560;SDS011;6852;51.686;5.314;2023-05-21T05:18:02;6.07;;;4.50;;
13560;SDS011;6852;51.686;5.314;2023-05-21T05:20:29;6.80;;;4.37;;
13560;SDS011;6852;51.686;5.314;2023-05-21T05:22:56;7.47;;;4.97;;
13560;SDS011;6852;51.686;5.314;2023-05-21T05:25:23;5.73;;;4.43;;
13560;SDS011;6852;51.686;5.314;2023-05-21T05:27:50;5.10;;;4.60;;
13560;SDS011;6852;51.686;5.314;2023-05-21T05:30:17;6.30;;;4.80;;
13560;SDS011;6852;51.686;5.314;2023-05-21T05:32:44;7.33;;;5.70;;
13560;SDS011;6852;51.686;5.314;2023-05-21T05:35:11;5.73;;;5.17;;
13560;SDS011;6852;51.686;5.314;2023-05-21T05:37:38;5.10;;;4.47;;
13560;SDS011;6852;51.686;5.314;2023-05-21T05:40:05;7.40;;;4.80;;
13560;SDS011;6852;51.686;5.314;2023-05-21T05:42:33;6.13;;;4.60;;
13560;SDS011;6852;51.686;5.314;2023-05-21T05:45:00;6.37;;;4.87;;
13560;SDS011;6852;51.686;5.314;2023-05-21T05:47:27;5.63;;;4.80;;
13560;SDS011;6852;51.686;5.314;2023-05-21T05:49:54;5.03;;;4.57;;
13560;SDS011;6852;51.686;5.314;2023-05-21T05:52:21;6.67;;;4.77;;
13560;SDS011;6852;51.686;5.314;2023-05-21T05:54:48;5.03;;;4.53;;
13560;SDS011;6852;51.686;5.314;2023-05-21T05:57:14;6.00;;;5.40;;
13560;SDS011;6852;51.686;5.314;2023-05-21T05:59:41;5.63;;;4.53;;
13560;SDS011;6852;51.686;5.314;2023-05-21T06:02:08;6.77;;;4.97;;
13560;SDS011;6852;51.686;5.314;2023-05-21T06:04:35;6.50;;;5.37;;
13560;SDS011;6852;51.686;5.314;2023-05-21T06:07:02;6.90;;;4.87;;
13560;SDS011;6852;51.686;5.314;2023-05-21T06:09:29;8.03;;;5.70;;
13560;SDS011;6852;51.686;5.314;2023-05-21T06:11:56;5.87;;;5.27;;
13560;SDS011;6852;51.686;5.314;2023-05-21T06:14:23;6.43;;;5.07;;
13560;SDS011;6852;51.686;5.314;2023-05-21T06:16:50;7.03;;;5.30;;
13560;SDS011;6852;51.686;5.314;2023-05-21T06:19:17;5.70;;;5.20;;
13560;SDS011;6852;51.686;5.314;2023-05-21T06:21:44;6.90;;;5.47;;
13560;SDS011;6852;51.686;5.314;2023-05-21T06:24:11;6.80;;;5.43;;
13560;SDS011;6852;51.686;5.314;2023-05-21T06:26:38;6.07;;;5.07;;
13560;SDS011;6852;51.686;5.314;2023-05-21T06:29:06;6.63;;;5.17;;
13560;SDS011;6852;51.686;5.314;2023-05-21T06:31:33;8.40;;;6.13;;
13560;SDS011;6852;51.686;5.314;2023-05-21T06:34:00;6.87;;;5.10;;
13560;SDS011;6852;51.686;5.314;2023-05-21T06:36:27;6.00;;;5.40;;
13560;SDS011;6852;51.686;5.314;2023-05-21T06:38:55;5.63;;;5.07;;
13560;SDS011;6852;51.686;5.314;2023-05-21T06:41:22;6.83;;;5.30;;
13560;SDS011;6852;51.686;5.314;2023-05-21T06:43:49;7.63;;;5.30;;
13560;SDS011;6852;51.686;5.314;2023-05-21T06:46:16;6.60;;;5.90;;
13560;SDS011;6852;51.686;5.314;2023-05-21T06:48:43;7.03;;;5.83;;
13560;SDS011;6852;51.686;5.314;2023-05-21T06:51:11;6.30;;;5.47;;
13560;SDS011;6852;51.686;5.314;2023-05-21T06:53:38;8.60;;;5.67;;
13560;SDS011;6852;51.686;5.314;2023-05-21T06:56:05;6.23;;;5.63;;
13560;SDS011;6852;51.686;5.314;2023-05-21T06:58:32;6.53;;;5.80;;
13560;SDS011;6852;51.686;5.314;2023-05-21T07:01:00;7.37;;;5.37;;
13560;SDS011;6852;51.686;5.314;2023-05-21T07:03:27;7.53;;;5.77;;
13560;SDS011;6852;51.686;5.314;2023-05-21T07:05:54;8.20;;;5.70;;
13560;SDS011;6852;51.686;5.314;2023-05-21T07:08:22;8.23;;;5.40;;
13560;SDS011;6852;51.686;5.314;2023-05-21T07:10:49;6.00;;;5.40;;
13560;SDS011;6852;51.686;5.314;2023-05-21T07:13:16;6.93;;;5.40;;
13560;SDS011;6852;51.686;5.314;2023-05-21T07:15:43;5.90;;;5.30;;
13560;SDS011;6852;51.686;5.314;2023-05-21T07:18:10;6.90;;;5.90;;
13560;SDS011;6852;51.686;5.314;2023-05-21T07:20:38;5.77;;;5.17;;
13560;SDS011;6852;51.686;5.314;2023-05-21T07:23:05;8.53;;;5.80;;
13560;SDS011;6852;51.686;5.314;2023-05-21T07:25:32;6.57;;;5.73;;
13560;SDS011;6852;51.686;5.314;2023-05-21T07:28:00;9.10;;;5.50;;
13560;SDS011;6852;51.686;5.314;2023-05-21T07:30:27;6.60;;;5.27;;
13560;SDS011;6852;51.686;5.314;2023-05-21T07:32:54;6.07;;;5.43;;
13560;SDS011;6852;51.686;5.314;2023-05-21T07:35:21;8.13;;;5.90;;
13560;SDS011;6852;51.686;5.314;2023-05-21T07:37:48;6.33;;;5.37;;
13560;SDS011;6852;51.686;5.314;2023-05-21T07:40:15;8.20;;;6.43;;
13560;SDS011;6852;51.686;5.314;2023-05-21T07:42:42;7.40;;;6.33;;
13560;SDS011;6852;51.686;5.314;2023-05-21T07:45:09;7.57;;;6.10;;
13560;SDS011;6852;51.686;5.314;2023-05-21T07:47:36;5.77;;;5.17;;
13560;SDS011;6852;51.686;5.314;2023-05-21T07:50:03;7.33;;;5.43;;
13560;SDS011;6852;51.686;5.314;2023-05-21T07:52:31;7.50;;;6.00;;
13560;SDS011;6852;51.686;5.314;2023-05-21T07:54:58;6.97;;;5.73;;
13560;SDS011;6852;51.686;5.314;2023-05-21T07:57:26;8.30;;;5.90;;
13560;SDS011;6852;51.686;5.314;2023-05-21T07:59:53;6.77;;;6.07;;
13560;SDS011;6852;51.686;5.314;2023-05-21T08:02:20;7.33;;;6.00;;
13560;SDS011;6852;51.686;5.314;2023-05-21T08:04:47;7.40;;;6.10;;
13560;SDS011;6852;51.686;5.314;2023-05-21T08:07:14;6.10;;;5.50;;
13560;SDS011;6852;51.686;5.314;2023-05-21T08:09:45;7.53;;;6.03;;
13560;SDS011;6852;51.686;5.314;2023-05-21T08:12:12;8.00;;;5.57;;
13560;SDS011;6852;51.686;5.314;2023-05-21T08:14:41;7.13;;;5.97;;
13560;SDS011;6852;51.686;5.314;2023-05-21T08:17:08;6.97;;;5.90;;
13560;SDS011;6852;51.686;5.314;2023-05-21T08:19:38;6.70;;;5.97;;
13560;SDS011;6852;51.686;5.314;2023-05-21T08:22:05;10.53;;;6.63;;
13560;SDS011;6852;51.686;5.314;2023-05-21T08:24:32;7.33;;;6.07;;
13560;SDS011;6852;51.686;5.314;2023-05-21T08:26:59;8.23;;;6.27;;
13560;SDS011;6852;51.686;5.314;2023-05-21T08:29:26;7.50;;;5.73;;
13560;SDS011;6852;51.686;5.314;2023-05-21T08:31:53;7.80;;;6.40;;
13560;SDS011;6852;51.686;5.314;2023-05-21T08:34:20;6.80;;;5.93;;
13560;SDS011;6852;51.686;5.314;2023-05-21T08:36:46;8.23;;;6.10;;
13560;SDS011;6852;51.686;5.314;2023-05-21T08:39:15;6.37;;;5.73;;
13560;SDS011;6852;51.686;5.314;2023-05-21T08:41:42;7.03;;;6.33;;
13560;SDS011;6852;51.686;5.314;2023-05-21T08:44:15;6.50;;;5.80;;
13560;SDS011;6852;51.686;5.314;2023-05-21T08:46:48;6.87;;;6.17;;
13560;SDS011;6852;51.686;5.314;2023-05-21T08:49:17;9.17;;;6.20;;
13560;SDS011;6852;51.686;5.314;2023-05-21T08:51:52;8.60;;;6.33;;
13560;SDS011;6852;51.686;5.314;2023-05-21T08:54:21;5.80;;;5.23;;
13560;SDS011;6852;51.686;5.314;2023-05-21T08:56:48;7.03;;;5.67;;
13560;SDS011;6852;51.686;5.314;2023-05-21T08:59:16;7.27;;;6.50;;
13560;SDS011;6852;51.686;5.314;2023-05-21T09:01:45;7.20;;;6.17;;
13560;SDS011;6852;51.686;5.314;2023-05-21T09:04:15;8.33;;;6.40;;
13560;SDS011;6852;51.686;5.314;2023-05-21T09:06:47;7.17;;;6.30;;
13560;SDS011;6852;51.686;5.314;2023-05-21T09:09:20;8.97;;;6.73;;
13560;SDS011;6852;51.686;5.314;2023-05-21T09:12:04;8.30;;;6.33;;
13560;SDS011;6852;51.686;5.314;2023-05-21T09:14:31;7.20;;;6.50;;
13560;SDS011;6852;51.686;5.314;2023-05-21T09:16:59;10.30;;;6.57;;
13560;SDS011;6852;51.686;5.314;2023-05-21T09:19:26;11.93;;;6.67;;
13560;SDS011;6852;51.686;5.314;2023-05-21T09:22:00;9.87;;;6.20;;
13560;SDS011;6852;51.686;5.314;2023-05-21T09:24:32;11.37;;;6.60;;
13560;SDS011;6852;51.686;5.314;2023-05-21T09:27:01;8.63;;;6.70;;
13560;SDS011;6852;51.686;5.314;2023-05-21T09:29:32;7.37;;;6.57;;
13560;SDS011;6852;51.686;5.314;2023-05-21T09:32:04;10.87;;;6.70;;
13560;SDS011;6852;51.686;5.314;2023-05-21T09:34:34;9.87;;;7.00;;
13560;SDS011;6852;51.686;5.314;2023-05-21T09:37:02;7.10;;;6.27;;
13560;SDS011;6852;51.686;5.314;2023-05-21T09:39:48;9.50;;;6.70;;
13560;SDS011;6852;51.686;5.314;2023-05-21T09:42:15;8.80;;;7.00;;
13560;SDS011;6852;51.686;5.314;2023-05-21T09:44:46;9.57;;;7.03;;
13560;SDS011;6852;51.686;5.314;2023-05-21T09:47:17;11.10;;;7.77;;
13560;SDS011;6852;51.686;5.314;2023-05-21T09:49:45;7.73;;;6.93;;
13560;SDS011;6852;51.686;5.314;2023-05-21T09:52:12;8.10;;;7.37;;
13560;SDS011;6852;51.686;5.314;2023-05-21T09:54:38;10.57;;;6.70;;
13560;SDS011;6852;51.686;5.314;2023-05-21T09:57:05;8.23;;;7.27;;
13560;SDS011;6852;51.686;5.314;2023-05-21T09:59:37;8.07;;;7.17;;
13560;SDS011;6852;51.686;5.314;2023-05-21T10:05:03;8.27;;;6.47;;
13560;SDS011;6852;51.686;5.314;2023-05-21T10:07:34;7.90;;;7.00;;
13560;SDS011;6852;51.686;5.314;2023-05-21T10:10:02;8.97;;;7.53;;
13560;SDS011;6852;51.686;5.314;2023-05-21T10:12:31;8.63;;;7.73;;
13560;SDS011;6852;51.686;5.314;2023-05-21T10:14:59;9.73;;;7.63;;
13560;SDS011;6852;51.686;5.314;2023-05-21T10:17:29;9.23;;;7.67;;
13560;SDS011;6852;51.686;5.314;2023-05-21T10:19:56;9.50;;;7.90;;
13560;SDS011;6852;51.686;5.314;2023-05-21T10:22:26;8.37;;;7.03;;
13560;SDS011;6852;51.686;5.314;2023-05-21T10:24:53;8.70;;;7.23;;
13560;SDS011;6852;51.686;5.314;2023-05-21T10:27:21;7.97;;;7.03;;
13560;SDS011;6852;51.686;5.314;2023-05-21T10:29:49;9.10;;;7.27;;
13560;SDS011;6852;51.686;5.314;2023-05-21T10:32:18;8.67;;;7.77;;
13560;SDS011;6852;51.686;5.314;2023-05-21T10:34:48;11.23;;;8.00;;
13560;SDS011;6852;51.686;5.314;2023-05-21T10:37:17;8.80;;;7.17;;
13560;SDS011;6852;51.686;5.314;2023-05-21T10:39:45;10.07;;;7.40;;
13560;SDS011;6852;51.686;5.314;2023-05-21T10:58:42;8.40;;;7.17;;
13560;SDS011;6852;51.686;5.314;2023-05-21T11:01:32;9.17;;;7.87;;
13560;SDS011;6852;51.686;5.314;2023-05-21T11:04:03;9.30;;;7.20;;
13560;SDS011;6852;51.686;5.314;2023-05-21T11:06:31;10.43;;;8.20;;
13560;SDS011;6852;51.686;5.314;2023-05-21T11:09:10;12.53;;;9.17;;
13560;SDS011;6852;51.686;5.314;2023-05-21T11:11:49;11.53;;;8.90;;
13560;SDS011;6852;51.686;5.314;2023-05-21T11:14:26;12.57;;;8.50;;
13560;SDS011;6852;51.686;5.314;2023-05-21T11:16:58;11.43;;;8.00;;
13560;SDS011;6852;51.686;5.314;2023-05-21T11:22:19;10.30;;;8.73;;
13560;SDS011;6852;51.686;5.314;2023-05-21T11:24:53;10.57;;;8.70;;
13560;SDS011;6852;51.686;5.314;2023-05-21T11:27:34;9.90;;;8.20;;
13560;SDS011;6852;51.686;5.314;2023-05-21T11:30:08;9.53;;;8.43;;
13560;SDS011;6852;51.686;5.314;2023-05-21T11:38:31;11.30;;;9.33;;
13560;SDS011;6852;51.686;5.314;2023-05-21T11:41:02;10.97;;;9.03;;
13560;SDS011;6852;51.686;5.314;2023-05-21T11:43:29;10.57;;;9.13;;
13560;SDS011;6852;51.686;5.314;2023-05-21T11:45:56;10.40;;;9.20;;
13560;SDS011;6852;51.686;5.314;2023-05-21T11:48:24;11.13;;;8.77;;
13560;SDS011;6852;51.686;5.314;2023-05-21T11:50:54;9.10;;;8.20;;
13560;SDS011;6852;51.686;5.314;2023-05-21T11:53:22;11.37;;;8.60;;
13560;SDS011;6852;51.686;5.314;2023-05-21T11:55:49;10.90;;;9.50;;
13560;SDS011;6852;51.686;5.314;2023-05-21T11:58:22;10.97;;;9.13;;
13560;SDS011;6852;51.686;5.314;2023-05-21T12:00:49;10.53;;;9.43;;
13560;SDS011;6852;51.686;5.314;2023-05-21T12:03:17;11.57;;;9.43;;
13560;SDS011;6852;51.686;5.314;2023-05-21T12:05:45;11.70;;;8.93;;
13560;SDS011;6852;51.686;5.314;2023-05-21T12:08:22;11.73;;;10.17;;
13560;SDS011;6852;51.686;5.314;2023-05-21T12:10:56;10.30;;;9.20;;
13560;SDS011;6852;51.686;5.314;2023-05-21T12:13:24;11.40;;;10.07;;
13560;SDS011;6852;51.686;5.314;2023-05-21T12:15:54;12.90;;;9.57;;
13560;SDS011;6852;51.686;5.314;2023-05-21T12:18:21;10.70;;;9.13;;
13560;SDS011;6852;51.686;5.314;2023-05-21T12:20:50;10.90;;;9.80;;
13560;SDS011;6852;51.686;5.314;2023-05-21T12:23:23;11.77;;;9.17;;
13560;SDS011;6852;51.686;5.314;2023-05-21T12:25:50;11.87;;;9.67;;
13560;SDS011;6852;51.686;5.314;2023-05-21T12:28:21;15.20;;;10.83;;
13560;SDS011;6852;51.686;5.314;2023-05-21T12:30:50;11.80;;;9.77;;
13560;SDS011;6852;51.686;5.314;2023-05-21T12:33:18;13.60;;;9.60;;
13560;SDS011;6852;51.686;5.314;2023-05-21T12:35:48;10.77;;;9.67;;
13560;SDS011;6852;51.686;5.314;2023-05-21T12:38:16;10.37;;;9.27;;
13560;SDS011;6852;51.686;5.314;2023-05-21T12:40:43;12.67;;;9.50;;
13560;SDS011;6852;51.686;5.314;2023-05-21T12:43:11;11.87;;;9.10;;
13560;SDS011;6852;51.686;5.314;2023-05-21T12:45:38;13.33;;;9.33;;
13560;SDS011;6852;51.686;5.314;2023-05-21T12:48:06;12.47;;;8.93;;
13560;SDS011;6852;51.686;5.314;2023-05-21T12:50:33;9.73;;;8.73;;
13560;SDS011;6852;51.686;5.314;2023-05-21T12:53:07;9.57;;;8.57;;
13560;SDS011;6852;51.686;5.314;2023-05-21T12:55:36;9.23;;;8.30;;
13560;SDS011;6852;51.686;5.314;2023-05-21T12:58:03;9.53;;;8.20;;
13560;SDS011;6852;51.686;5.314;2023-05-21T13:00:33;10.97;;;8.57;;
13560;SDS011;6852;51.686;5.314;2023-05-21T13:03:01;10.17;;;9.03;;
13560;SDS011;6852;51.686;5.314;2023-05-21T13:05:30;9.37;;;8.17;;
13560;SDS011;6852;51.686;5.314;2023-05-21T13:07:57;11.33;;;8.87;;
13560;SDS011;6852;51.686;5.314;2023-05-21T13:10:24;11.03;;;8.67;;
13560;SDS011;6852;51.686;5.314;2023-05-21T13:12:50;9.17;;;8.13;;
13560;SDS011;6852;51.686;5.314;2023-05-21T13:15:18;9.80;;;8.80;;
13560;SDS011;6852;51.686;5.314;2023-05-21T13:17:45;9.27;;;8.33;;
13560;SDS011;6852;51.686;5.314;2023-05-21T13:20:15;9.87;;;8.87;;
13560;SDS011;6852;51.686;5.314;2023-05-21T13:22:59;10.53;;;8.67;;
13560;SDS011;6852;51.686;5.314;2023-05-21T13:25:28;10.20;;;9.07;;
13560;SDS011;6852;51.686;5.314;2023-05-21T13:27:59;10.53;;;9.00;;
13560;SDS011;6852;51.686;5.314;2023-05-21T13:30:28;14.13;;;8.80;;
13560;SDS011;6852;51.686;5.314;2023-05-21T13:32:55;8.97;;;7.60;;
13560;SDS011;6852;51.686;5.314;2023-05-21T13:35:22;13.47;;;9.27;;
13560;SDS011;6852;51.686;5.314;2023-05-21T13:37:49;13.13;;;8.63;;
13560;SDS011;6852;51.686;5.314;2023-05-21T13:40:16;9.23;;;8.20;;
13560;SDS011;6852;51.686;5.314;2023-05-21T13:42:43;12.07;;;8.43;;
13560;SDS011;6852;51.686;5.314;2023-05-21T13:45:12;9.80;;;8.30;;
13560;SDS011;6852;51.686;5.314;2023-05-21T13:47:42;9.60;;;7.57;;
13560;SDS011;6852;51.686;5.314;2023-05-21T13:50:11;10.97;;;7.87;;
13560;SDS011;6852;51.686;5.314;2023-05-21T13:52:38;8.53;;;7.63;;
13560;SDS011;6852;51.686;5.314;2023-05-21T13:55:06;12.10;;;8.90;;
13560;SDS011;6852;51.686;5.314;2023-05-21T13:57:33;9.80;;;8.80;;
13560;SDS011;6852;51.686;5.314;2023-05-21T14:00:00;11.27;;;8.87;;
13560;SDS011;6852;51.686;5.314;2023-05-21T14:02:27;10.57;;;8.50;;
13560;SDS011;6852;51.686;5.314;2023-05-21T14:04:54;10.80;;;8.57;;
13560;SDS011;6852;51.686;5.314;2023-05-21T14:07:21;9.63;;;8.63;;
13560;SDS011;6852;51.686;5.314;2023-05-21T14:09:48;9.33;;;8.03;;
13560;SDS011;6852;51.686;5.314;2023-05-21T14:12:15;12.67;;;8.23;;
13560;SDS011;6852;51.686;5.314;2023-05-21T14:14:42;11.63;;;8.30;;
13560;SDS011;6852;51.686;5.314;2023-05-21T14:17:10;10.60;;;8.40;;
13560;SDS011;6852;51.686;5.314;2023-05-21T14:19:37;9.03;;;8.07;;
13560;SDS011;6852;51.686;5.314;2023-05-21T14:22:04;9.07;;;8.17;;
13560;SDS011;6852;51.686;5.314;2023-05-21T14:24:31;14.17;;;8.40;;
13560;SDS011;6852;51.686;5.314;2023-05-21T14:26:58;8.97;;;8.13;;
13560;SDS011;6852;51.686;5.314;2023-05-21T14:29:25;11.10;;;8.77;;
13560;SDS011;6852;51.686;5.314;2023-05-21T14:31:51;9.80;;;8.40;;
13560;SDS011;6852;51.686;5.314;2023-05-21T14:34:22;9.33;;;8.03;;
13560;SDS011;6852;51.686;5.314;2023-05-21T14:36:49;11.20;;;8.77;;
13560;SDS011;6852;51.686;5.314;2023-05-21T14:39:16;9.40;;;7.67;;
13560;SDS011;6852;51.686;5.314;2023-05-21T14:41:43;9.90;;;7.50;;
13560;SDS011;6852;51.686;5.314;2023-05-21T14:44:10;8.13;;;7.40;;
13560;SDS011;6852;51.686;5.314;2023-05-21T14:46:37;10.57;;;8.87;;
13560;SDS011;6852;51.686;5.314;2023-05-21T14:49:04;11.47;;;8.03;;
13560;SDS011;6852;51.686;5.314;2023-05-21T14:51:31;11.23;;;8.17;;
13560;SDS011;6852;51.686;5.314;2023-05-21T14:53:58;9.07;;;8.03;;
13560;SDS011;6852;51.686;5.314;2023-05-21T14:56:25;9.27;;;7.67;;
13560;SDS011;6852;51.686;5.314;2023-05-21T14:58:53;9.60;;;7.83;;
13560;SDS011;6852;51.686;5.314;2023-05-21T15:01:20;9.53;;;8.13;;
13560;SDS011;6852;51.686;5.314;2023-05-21T15:03:48;10.20;;;7.23;;
13560;SDS011;6852;51.686;5.314;2023-05-21T15:06:15;10.27;;;7.37;;
13560;SDS011;6852;51.686;5.314;2023-05-21T15:08:42;8.87;;;7.97;;
13560;SDS011;6852;51.686;5.314;2023-05-21T15:11:09;9.57;;;7.73;;
13560;SDS011;6852;51.686;5.314;2023-05-21T15:13:36;9.37;;;7.70;;
13560;SDS011;6852;51.686;5.314;2023-05-21T15:16:04;8.23;;;7.33;;
13560;SDS011;6852;51.686;5.314;2023-05-21T15:18:31;10.73;;;8.10;;
13560;SDS011;6852;51.686;5.314;2023-05-21T15:20:59;9.17;;;7.47;;
13560;SDS011;6852;51.686;5.314;2023-05-21T15:23:26;8.50;;;7.43;;
13560;SDS011;6852;51.686;5.314;2023-05-21T15:25:53;11.07;;;7.93;;
13560;SDS011;6852;51.686;5.314;2023-05-21T15:28:20;9.43;;;7.97;;
13560;SDS011;6852;51.686;5.314;2023-05-21T15:30:48;10.33;;;7.27;;
13560;SDS011;6852;51.686;5.314;2023-05-21T15:33:15;10.83;;;8.67;;
13560;SDS011;6852;51.686;5.314;2023-05-21T15:35:42;8.97;;;8.07;;